Time;durP1;ratioP1;P1;durP2;ratioP2;P2;SDS_P1;SDS_P2;PMS_P1;PMS_P2;Temp;Humidity;BMP_temperature;BMP_pressure;BME280_temperature;BME280_humidity;BME280_pressure;Samples;Min_cycle;Max_cycle;Signal;HPM_P1;HPM_P2
2022/08/04 00:00:06;;;;;;;12.02;3.58;;;18.70;99.90;;;;;;5019741;28;20057;-69
2022/08/04 00:02:48;;;;;;;11.27;3.50;;;18.70;99.90;;;;;;5029954;28;20453;-69
2022/08/04 00:05:42;;;;;;;9.38;3.75;;;18.80;99.90;;;;;;5044750;28;20140;-69
2022/08/04 00:08:22;;;;;;;8.07;3.70;;;18.80;99.90;;;;;;5035649;28;20045;-69
2022/08/04 00:10:52;;;;;;;9.85;3.60;;;18.80;99.90;;;;;;5050002;28;20049;-69
2022/08/04 00:13:23;;;;;;;8.38;3.42;;;18.70;99.90;;;;;;5043504;28;20202;-69
2022/08/04 00:15:56;;;;;;;9.57;3.90;;;18.70;99.90;;;;;;5041492;28;20045;-69
2022/08/04 00:18:26;;;;;;;7.38;3.15;;;18.70;99.90;;;;;;5015765;28;20124;-70
2022/08/04 00:20:58;;;;;;;8.13;3.20;;;18.70;99.90;;;;;;5030947;28;20041;-69
2022/08/04 00:23:26;;;;;;;11.02;3.63;;;18.60;99.90;;;;;;5031988;28;20045;-70
2022/08/04 00:25:53;;;;;;;9.93;3.53;;;18.60;99.90;;;;;;5031881;28;20037;-69
2022/08/04 00:28:20;;;;;;;13.13;3.55;;;18.60;99.90;;;;;;5026018;28;20045;-69
2022/08/04 00:30:46;;;;;;;8.40;3.70;;;18.60;99.90;;;;;;5038399;28;20080;-69
2022/08/04 00:33:18;;;;;;;9.52;3.28;;;18.70;99.90;;;;;;5043627;28;20077;-69
2022/08/04 00:35:47;;;;;;;8.45;3.65;;;18.70;99.90;;;;;;5030119;28;20053;-69
2022/08/04 00:38:14;;;;;;;11.90;4.32;;;18.70;99.90;;;;;;5022327;28;20073;-69
2022/08/04 00:40:47;;;;;;;9.70;3.92;;;18.60;99.90;;;;;;5051784;28;20045;-70
2022/08/04 00:43:32;;;;;;;9.05;3.70;;;18.60;99.90;;;;;;5040933;28;20079;-70
2022/08/04 00:46:35;;;;;;;13.52;4.30;;;18.70;99.90;;;;;;5048719;28;20049;-69
2022/08/04 00:49:25;;;;;;;11.05;3.75;;;18.70;99.90;;;;;;5034931;28;20049;-70
2022/08/04 00:52:28;;;;;;;9.80;4.05;;;18.70;99.90;;;;;;5041250;28;20045;-70
2022/08/04 00:55:16;;;;;;;12.02;4.07;;;18.70;99.90;;;;;;5048926;28;20078;-70
2022/08/04 00:58:10;;;;;;;9.00;3.95;;;18.70;99.90;;;;;;5021696;28;20052;-69
2022/08/04 01:01:04;;;;;;;11.00;4.05;;;18.60;99.90;;;;;;5051209;28;20094;-70
2022/08/04 01:04:02;;;;;;;10.48;4.13;;;18.60;99.90;;;;;;5037925;28;20049;-70
2022/08/04 01:07:22;;;;;;;8.85;3.97;;;18.70;99.90;;;;;;5018269;28;20121;-70
2022/08/04 01:09:55;;;;;;;10.23;4.40;;;18.60;99.90;;;;;;4998846;28;20169;-70
2022/08/04 01:12:33;;;;;;;11.55;4.43;;;18.70;99.90;;;;;;5042597;28;20088;-69
2022/08/04 01:15:06;;;;;;;8.52;4.00;;;18.70;99.90;;;;;;5053666;28;20090;-69
2022/08/04 01:17:35;;;;;;;8.30;4.25;;;18.70;99.90;;;;;;5014722;28;20051;-69
2022/08/04 01:20:07;;;;;;;11.70;4.43;;;18.70;99.90;;;;;;5029266;28;20033;-70
2022/08/04 01:22:33;;;;;;;14.73;4.47;;;18.70;99.90;;;;;;5032558;28;20033;-69
2022/08/04 01:25:02;;;;;;;11.73;4.50;;;18.90;99.90;;;;;;5030475;28;20076;-69
2022/08/04 01:27:47;;;;;;;9.63;4.72;;;18.90;99.90;;;;;;5023993;28;20095;-69
2022/08/04 01:30:13;;;;;;;15.50;5.10;;;18.90;99.90;;;;;;5035275;28;20060;-70
2022/08/04 01:32:48;;;;;;;11.23;4.82;;;18.90;99.90;;;;;;5049898;28;20051;-70
2022/08/04 01:35:27;;;;;;;14.27;4.90;;;18.90;99.90;;;;;;5050244;28;20049;-70
2022/08/04 01:38:04;;;;;;;9.23;4.95;;;18.90;99.90;;;;;;5030692;28;20489;-69
2022/08/04 01:40:30;;;;;;;8.73;4.15;;;18.90;99.90;;;;;;5030869;28;20053;-70
2022/08/04 01:42:59;;;;;;;11.05;4.63;;;18.90;99.90;;;;;;5033973;28;20047;-70
2022/08/04 01:45:26;;;;;;;10.02;5.05;;;18.80;99.90;;;;;;5049494;28;20064;-70
2022/08/04 01:47:54;;;;;;;13.50;4.63;;;18.80;99.90;;;;;;5029016;28;20436;-70
2022/08/04 01:50:21;;;;;;;13.48;5.18;;;18.70;99.90;;;;;;5029379;28;20053;-70
2022/08/04 01:52:47;;;;;;;9.90;5.35;;;18.70;99.90;;;;;;5031528;28;20064;-70
2022/08/04 01:55:16;;;;;;;12.23;6.15;;;18.60;99.90;;;;;;5029438;28;20045;-71
2022/08/04 01:57:43;;;;;;;9.93;5.70;;;18.60;99.90;;;;;;5009831;28;20484;-70
2022/08/04 02:00:14;;;;;;;14.00;5.40;;;18.60;99.90;;;;;;5044638;28;20133;-70
2022/08/04 02:02:40;;;;;;;15.68;6.10;;;18.60;99.90;;;;;;5042239;28;20242;-69
2022/08/04 02:05:10;;;;;;;15.52;6.00;;;18.50;99.90;;;;;;5041737;28;20119;-70
2022/08/04 02:07:44;;;;;;;9.18;5.40;;;18.60;99.90;;;;;;5033140;28;20468;-69
2022/08/04 02:10:34;;;;;;;11.18;5.05;;;18.50;99.90;;;;;;5049082;28;20049;-70
2022/08/04 02:13:12;;;;;;;10.20;5.53;;;18.50;99.90;;;;;;5035100;28;20149;-70
2022/08/04 02:15:56;;;;;;;11.13;4.93;;;18.40;99.90;;;;;;5038841;28;20038;-70
2022/08/04 02:18:50;;;;;;;12.55;5.68;;;18.40;99.90;;;;;;5013052;28;20196;-70
2022/08/04 02:21:19;;;;;;;10.20;5.75;;;18.40;99.90;;;;;;5048343;28;20057;-70
2022/08/04 02:23:49;;;;;;;11.93;5.75;;;18.80;99.90;;;;;;5054406;28;20073;-70
2022/08/04 02:26:21;;;;;;;15.48;6.20;;;18.80;99.90;;;;;;5019619;28;20504;-70
2022/08/04 02:29:03;;;;;;;14.40;5.93;;;18.90;99.90;;;;;;5022641;28;20648;-70
2022/08/04 02:31:47;;;;;;;11.80;6.80;;;19.00;99.90;;;;;;5044869;28;20068;-70
2022/08/04 02:34:27;;;;;;;12.30;7.03;;;19.10;99.90;;;;;;5046633;28;20041;-70
2022/08/04 02:36:54;;;;;;;14.23;6.97;;;19.10;99.90;;;;;;5033658;28;20053;-70
2022/08/04 02:39:21;;;;;;;15.52;6.97;;;19.20;99.90;;;;;;5048282;28;20336;-70
2022/08/04 02:41:48;;;;;;;13.25;6.40;;;19.20;99.90;;;;;;5048965;28;20040;-70
2022/08/04 02:44:21;;;;;;;15.10;6.93;;;19.30;99.90;;;;;;4993949;28;1096081;-70
2022/08/04 02:46:50;;;;;;;15.63;6.63;;;19.10;99.90;;;;;;5021750;28;20367;-70
2022/08/04 02:49:17;;;;;;;10.60;6.30;;;19.00;99.90;;;;;;5048678;28;20061;-70
2022/08/04 02:51:46;;;;;;;15.15;6.93;;;19.00;99.90;;;;;;5037923;28;20100;-70
2022/08/04 02:54:14;;;;;;;12.60;6.32;;;18.90;99.90;;;;;;5042018;28;20120;-71
2022/08/04 02:56:44;;;;;;;13.75;6.40;;;19.00;99.90;;;;;;5016059;28;20385;-70
2022/08/04 02:59:11;;;;;;;15.88;6.03;;;18.90;99.90;;;;;;5043968;28;20049;-70
2022/08/04 03:01:38;;;;;;;13.23;6.20;;;18.90;99.90;;;;;;5021065;28;20111;-70
2022/08/04 03:04:32;;;;;;;14.77;6.30;;;18.90;99.90;;;;;;5031652;28;20455;-70
2022/08/04 03:07:30;;;;;;;15.02;6.35;;;18.90;99.90;;;;;;5031269;28;20067;-70
2022/08/04 03:10:03;;;;;;;14.23;6.72;;;18.80;99.90;;;;;;5043886;28;20045;-70
2022/08/04 03:12:47;;;;;;;17.27;6.80;;;18.80;99.90;;;;;;5042461;28;20120;-70
2022/08/04 03:15:28;;;;;;;11.63;5.72;;;18.70;99.90;;;;;;5040869;28;20500;-70
2022/08/04 03:18:19;;;;;;;;;;;18.70;99.90;;;;;;5012275;28;20500;-67
2022/08/04 03:21:19;;;;;;;12.80;6.15;;;18.60;99.90;;;;;;5028148;28;19971;-68
2022/08/04 03:23:54;;;;;;;11.77;5.68;;;18.60;99.90;;;;;;5037613;28;20136;-68
2022/08/04 03:26:47;;;;;;;10.23;6.13;;;18.60;99.90;;;;;;5024081;28;20460;-68
2022/08/04 03:29:32;;;;;;;12.65;6.55;;;18.60;99.90;;;;;;5044983;28;20072;-68
2022/08/04 03:32:21;;;;;;;12.57;6.78;;;18.50;99.90;;;;;;5067827;28;20412;-68
2022/08/04 03:35:21;;;;;;;13.68;6.78;;;18.40;99.90;;;;;;5047200;28;20408;-68
2022/08/04 03:38:22;;;;;;;10.80;6.80;;;18.40;99.90;;;;;;5015986;28;20049;-68
2022/08/04 03:41:30;;;;;;;14.18;6.80;;;18.40;99.90;;;;;;5026944;28;20574;-68
2022/08/04 03:44:12;;;;;;;15.93;7.30;;;18.40;99.90;;;;;;5036122;28;20046;-68
2022/08/04 03:47:05;;;;;;;14.70;7.50;;;18.30;99.90;;;;;;5038160;28;20049;-68
2022/08/04 03:49:42;;;;;;;15.98;8.52;;;18.30;99.90;;;;;;5051848;28;20045;-68
2022/08/04 03:55:33;;;;;;;12.35;7.30;;;18.30;99.90;;;;;;5052475;28;20118;-68
2022/08/04 03:58:04;;;;;;;14.45;8.18;;;18.40;99.90;;;;;;5035553;28;20056;-68
2022/08/04 04:00:46;;;;;;;16.50;7.82;;;18.40;99.90;;;;;;5051841;28;20053;-68
2022/08/04 04:03:20;;;;;;;14.45;7.72;;;18.40;99.90;;;;;;5041930;28;20046;-68
2022/08/04 04:06:21;;;;;;;15.50;7.53;;;18.40;99.90;;;;;;5035268;28;20515;-68
2022/08/04 04:09:10;;;;;;;11.15;7.53;;;18.40;99.90;;;;;;5032176;28;20050;-68
2022/08/04 04:11:56;;;;;;;14.73;7.18;;;18.40;99.90;;;;;;5050056;28;20072;-68
2022/08/04 04:15:00;;;;;;;14.15;7.00;;;18.30;99.90;;;;;;5040809;28;20055;-68
2022/08/04 04:17:32;;;;;;;11.80;6.90;;;18.40;99.90;;;;;;5022117;28;20040;-68
2022/08/04 04:20:30;;;;;;;18.92;7.20;;;18.40;99.90;;;;;;5050373;28;20048;-68
2022/08/04 04:23:10;;;;;;;17.02;6.85;;;18.40;99.90;;;;;;5046332;28;20073;-68
2022/08/04 04:26:18;;;;;;;12.68;7.30;;;18.40;99.90;;;;;;5050941;28;20045;-68
2022/08/04 04:29:12;;;;;;;11.77;6.60;;;18.40;99.90;;;;;;5039988;28;20096;-73
2022/08/04 04:32:19;;;;;;;12.18;6.78;;;18.40;99.90;;;;;;5030247;28;20092;-71
2022/08/04 04:35:11;;;;;;;13.23;6.85;;;18.40;99.90;;;;;;5048528;28;20048;-71
2022/08/04 04:37:52;;;;;;;14.73;7.10;;;18.40;99.90;;;;;;5034956;28;20079;-71
2022/08/04 04:40:42;;;;;;;15.52;6.70;;;18.50;99.90;;;;;;5040050;28;20469;-71
2022/08/04 04:43:26;;;;;;;14.03;7.17;;;18.50;99.90;;;;;;5036054;28;20500;-71
2022/08/04 04:46:29;;;;;;;14.05;6.38;;;18.60;99.90;;;;;;5044219;28;20299;-71
2022/08/04 04:49:04;;;;;;;10.68;7.18;;;18.60;99.90;;;;;;5039400;28;20069;-71
2022/08/04 04:51:51;;;;;;;10.85;6.45;;;18.60;99.90;;;;;;5050986;28;20526;-70
2022/08/04 04:54:44;;;;;;;12.55;7.45;;;18.70;99.90;;;;;;5050621;28;20045;-71
2022/08/04 04:57:17;;;;;;;11.68;6.50;;;18.70;99.90;;;;;;5034255;28;20067;-71
2022/08/04 04:59:58;;;;;;;12.75;6.47;;;18.80;99.90;;;;;;5029708;28;20041;-71
2022/08/04 05:02:26;;;;;;;12.43;6.50;;;18.80;99.90;;;;;;5042476;28;20053;-71
2022/08/04 05:05:01;;;;;;;11.02;5.90;;;18.80;99.90;;;;;;5041814;28;20049;-71
2022/08/04 05:07:32;;;;;;;15.85;7.28;;;18.90;99.90;;;;;;5027781;28;20439;-71
2022/08/04 05:10:13;;;;;;;;;;;18.90;99.90;;;;;;5030227;28;20409;-71
2022/08/04 05:13:16;;;;;;;14.90;6.88;;;19.00;99.90;;;;;;5032150;28;19924;-71
2022/08/04 05:15:45;;;;;;;14.38;8.35;;;19.00;99.90;;;;;;5039735;28;20079;-71
2022/08/04 05:18:18;;;;;;;17.02;8.63;;;19.10;99.90;;;;;;5013151;28;20095;-70
2022/08/04 05:20:50;;;;;;;16.80;8.23;;;19.20;99.90;;;;;;5029239;28;20057;-70
2022/08/04 05:23:20;;;;;;;15.52;8.38;;;19.20;99.90;;;;;;5032605;28;20041;-71
2022/08/04 05:25:54;;;;;;;21.75;8.27;;;19.30;99.90;;;;;;5040798;28;20053;-71
2022/08/04 05:28:33;;;;;;;14.57;7.32;;;19.40;99.90;;;;;;5034444;28;20045;-71
2022/08/04 05:31:04;;;;;;;16.20;8.30;;;19.60;99.90;;;;;;5050161;28;20056;-71
2022/08/04 05:33:46;;;;;;;13.82;7.78;;;19.70;99.90;;;;;;5041645;28;20053;-71
2022/08/04 05:36:18;;;;;;;10.73;7.03;;;19.80;99.90;;;;;;5019473;28;20496;-73
2022/08/04 05:38:48;;;;;;;17.77;8.15;;;19.90;99.90;;;;;;5025591;28;20551;-71
2022/08/04 05:41:14;;;;;;;16.02;8.18;;;20.00;99.90;;;;;;5029819;28;20045;-70
2022/08/04 05:43:43;;;;;;;16.10;8.20;;;20.00;99.90;;;;;;5041319;28;20049;-71
2022/08/04 05:46:12;;;;;;;14.82;8.05;;;20.00;99.90;;;;;;5038156;28;20532;-73
2022/08/04 05:48:39;;;;;;;17.98;9.15;;;20.00;99.90;;;;;;5032736;28;20433;-71
2022/08/04 05:51:09;;;;;;;19.58;9.20;;;20.00;99.90;;;;;;5028276;28;20057;-73
2022/08/04 05:53:36;;;;;;;19.13;9.87;;;20.10;99.90;;;;;;5029517;28;20053;-71
2022/08/04 05:56:03;;;;;;;16.90;9.27;;;20.10;99.90;;;;;;5047416;28;20171;-71
2022/08/04 05:58:30;;;;;;;21.17;8.85;;;20.20;99.90;;;;;;5032189;28;20481;-72
2022/08/04 06:01:00;;;;;;;21.30;8.57;;;20.30;99.90;;;;;;5048865;28;20500;-72
2022/08/04 06:03:29;;;;;;;14.80;8.88;;;20.50;99.90;;;;;;5036372;28;20424;-72
2022/08/04 06:05:57;;;;;;;17.45;8.57;;;20.60;99.90;;;;;;5029933;28;20045;-72
2022/08/04 06:08:23;;;;;;;17.23;8.45;;;20.80;99.90;;;;;;5025023;28;20036;-72
2022/08/04 06:10:51;;;;;;;17.30;7.65;;;20.90;99.90;;;;;;5042496;28;20053;-72
2022/08/04 06:13:24;;;;;;;15.05;7.75;;;21.10;99.90;;;;;;5042193;28;20091;-72
2022/08/04 06:15:53;;;;;;;21.45;9.02;;;21.20;99.90;;;;;;5040608;28;20140;-72
2022/08/04 06:18:19;;;;;;;14.27;7.78;;;21.40;99.90;;;;;;5013388;28;20045;-72
2022/08/04 06:20:47;;;;;;;16.95;7.40;;;21.50;99.90;;;;;;5029742;28;20394;-72
2022/08/04 06:23:15;;;;;;;16.83;7.18;;;21.50;99.90;;;;;;5031048;28;20175;-72
2022/08/04 06:25:47;;;;;;;15.93;8.00;;;21.60;99.90;;;;;;5029796;28;20485;-72
2022/08/04 06:28:15;;;;;;;15.15;7.85;;;21.70;99.90;;;;;;5028234;28;20045;-72
2022/08/04 06:30:46;;;;;;;17.60;8.07;;;21.80;99.90;;;;;;5049300;28;20492;-71
2022/08/04 06:33:23;;;;;;;;;;;21.90;99.90;;;;;;5049598;28;20046;-71
2022/08/04 06:35:52;;;;;;;16.88;7.60;;;22.00;99.90;;;;;;5037119;28;20024;-71
2022/08/04 06:38:20;;;;;;;17.67;7.90;;;22.00;99.90;;;;;;5012816;28;20143;-72
2022/08/04 06:40:46;;;;;;;15.27;6.80;;;22.00;99.90;;;;;;5041686;28;20044;-72
2022/08/04 06:43:12;;;;;;;12.15;6.22;;;22.10;99.90;;;;;;5041595;28;20506;-71
2022/08/04 06:45:40;;;;;;;11.70;5.88;;;22.10;99.90;;;;;;5048352;28;20049;-72
2022/08/04 06:48:06;;;;;;;9.90;6.22;;;22.20;99.90;;;;;;5031774;28;20075;-72
2022/08/04 06:50:36;;;;;;;15.00;5.90;;;22.20;99.90;;;;;;5049729;28;20128;-72
2022/08/04 06:53:02;;;;;;;11.60;5.10;;;22.30;99.90;;;;;;5049117;28;20049;-72
2022/08/04 06:55:29;;;;;;;10.85;5.00;;;22.40;99.90;;;;;;5049507;28;20052;-72
2022/08/04 06:57:56;;;;;;;11.57;5.15;;;22.40;99.90;;;;;;5031899;28;20507;-71
2022/08/04 07:00:24;;;;;;;11.00;5.57;;;22.40;99.90;;;;;;5049594;28;20037;-72
2022/08/04 07:02:51;;;;;;;11.10;4.88;;;22.50;99.90;;;;;;5041735;28;20042;-71
2022/08/04 07:05:19;;;;;;;9.98;5.22;;;22.50;99.90;;;;;;5029362;28;20076;-72
2022/08/04 07:07:45;;;;;;;10.07;6.25;;;22.50;99.90;;;;;;5024340;28;20506;-72
2022/08/04 07:10:13;;;;;;;11.85;5.32;;;22.60;99.90;;;;;;5053341;28;20041;-72
2022/08/04 07:12:39;;;;;;;10.57;5.25;;;22.60;99.90;;;;;;5042223;28;20049;-72
2022/08/04 07:15:06;;;;;;;12.23;5.05;;;22.70;99.90;;;;;;5050150;28;20048;-72
2022/08/04 07:17:35;;;;;;;9.43;5.22;;;22.70;99.90;;;;;;5015813;28;20045;-72
2022/08/04 07:20:02;;;;;;;9.25;4.85;;;22.80;99.90;;;;;;5032935;28;20458;-72
2022/08/04 07:22:28;;;;;;;14.93;5.35;;;22.90;99.90;;;;;;5034183;28;20045;-72
2022/08/04 07:24:55;;;;;;;9.00;5.00;;;23.00;99.90;;;;;;5032869;28;20570;-72
2022/08/04 07:27:21;;;;;;;9.57;5.45;;;23.00;99.90;;;;;;5016619;28;20099;-73
2022/08/04 07:29:48;;;;;;;11.15;5.35;;;23.10;99.90;;;;;;5032908;28;20049;-72
2022/08/04 07:32:15;;;;;;;11.75;5.90;;;23.10;99.90;;;;;;5040660;28;20511;-72
2022/08/04 07:34:41;;;;;;;16.13;6.93;;;23.10;99.90;;;;;;5034426;28;20085;-73
2022/08/04 07:37:07;;;;;;;14.55;7.57;;;23.00;99.90;;;;;;5016105;28;20046;-78
2022/08/04 07:39:35;;;;;;;14.30;7.32;;;22.90;99.90;;;;;;5032695;28;20041;-73
2022/08/04 07:42:02;;;;;;;12.52;7.88;;;22.90;99.90;;;;;;5036967;28;20120;-73
2022/08/04 07:44:30;;;;;;;15.80;7.88;;;22.90;99.90;;;;;;5033928;28;20045;-75
2022/08/04 07:46:56;;;;;;;16.05;8.50;;;22.80;99.90;;;;;;5036810;28;20048;-71
2022/08/04 07:49:23;;;;;;;13.18;8.38;;;22.80;99.90;;;;;;5048036;28;20040;-72
2022/08/04 07:51:50;;;;;;;15.68;7.90;;;22.80;99.90;;;;;;5031361;28;20412;-72
2022/08/04 07:54:17;;;;;;;12.15;7.93;;;22.80;99.90;;;;;;5031680;28;20046;-72
2022/08/04 07:56:43;;;;;;;14.10;7.47;;;23.00;99.90;;;;;;5018079;28;20322;-73
2022/08/04 07:59:08;;;;;;;11.43;7.15;;;23.00;99.90;;;;;;5030372;28;20041;-74
2022/08/04 08:01:35;;;;;;;9.88;6.95;;;23.10;99.90;;;;;;5031022;28;20053;-73
2022/08/04 08:04:04;;;;;;;10.80;6.88;;;23.20;99.90;;;;;;5031514;28;20087;-72
2022/08/04 08:06:30;;;;;;;12.98;7.10;;;23.30;99.90;;;;;;5028405;28;20419;-72
2022/08/04 08:08:58;;;;;;;12.35;7.70;;;23.40;99.90;;;;;;5049727;28;20044;-72
2022/08/04 08:11:24;;;;;;;13.98;7.05;;;23.40;99.90;;;;;;5048488;28;20060;-71
2022/08/04 08:13:51;;;;;;;14.68;5.63;;;23.40;99.90;;;;;;5033950;28;20496;-71
2022/08/04 08:16:19;;;;;;;15.20;6.10;;;23.50;99.90;;;;;;5033394;28;20076;-72
2022/08/04 08:18:45;;;;;;;17.08;6.40;;;23.50;99.90;;;;;;5044341;28;20585;-72
2022/08/04 08:21:11;;;;;;;12.80;5.47;;;23.50;99.90;;;;;;5050855;28;20115;-71
2022/08/04 08:23:37;;;;;;;10.98;6.68;;;23.50;99.90;;;;;;5028996;28;20454;-73
2022/08/04 08:26:05;;;;;;;12.07;6.18;;;23.40;99.90;;;;;;5031009;28;20488;-71
2022/08/04 08:28:31;;;;;;;13.73;6.63;;;23.40;99.90;;;;;;5033903;28;20548;-77
2022/08/04 08:30:57;;;;;;;14.70;7.22;;;23.50;99.90;;;;;;5051672;28;20103;-73
2022/08/04 08:33:24;;;;;;;9.93;6.03;;;23.40;99.90;;;;;;5050684;28;20416;-71
2022/08/04 08:36:03;;;;;;;14.70;6.05;;;23.50;99.90;;;;;;5051438;28;20484;-71
2022/08/04 08:38:48;;;;;;;13.85;6.55;;;23.60;99.90;;;;;;5035887;28;20044;-72
2022/08/04 08:41:36;;;;;;;11.77;6.15;;;23.70;99.90;;;;;;5050258;28;20107;-71
2022/08/04 08:44:32;;;;;;;14.25;6.93;;;23.60;99.90;;;;;;5048798;28;20053;-74
2022/08/04 08:47:15;;;;;;;12.00;6.10;;;23.60;99.90;;;;;;5025061;28;20072;-70
2022/08/04 08:50:00;;;;;;;15.25;6.65;;;23.80;99.90;;;;;;5050673;28;20057;-71
2022/08/04 08:52:36;;;;;;;14.10;5.82;;;23.90;99.90;;;;;;5048988;28;20488;-71
2022/08/04 08:55:59;;;;;;;11.52;5.72;;;23.90;99.90;;;;;;5050762;28;20092;-74
2022/08/04 08:58:49;;;;;;;9.77;4.93;;;23.90;99.90;;;;;;4962817;28;20039;-70
2022/08/04 09:01:39;;;;;;;11.82;3.47;;;24.00;99.90;;;;;;4980758;28;20050;-71
2022/08/04 09:04:16;;;;;;;6.15;3.33;;;24.10;99.90;;;;;;5032128;28;20526;-71
2022/08/04 09:07:17;;;;;;;7.28;3.05;;;24.30;99.90;;;;;;5026828;28;20033;-71
2022/08/04 09:09:47;;;;;;;11.00;3.25;;;24.10;99.90;;;;;;5040039;28;20409;-76
2022/08/04 09:12:35;;;;;;;7.55;2.95;;;24.10;99.90;;;;;;5039854;28;20064;-70
2022/08/04 09:15:28;;;;;;;5.53;2.78;;;24.10;99.90;;;;;;5056106;28;20113;-70
2022/08/04 09:18:03;;;;;;;8.70;2.90;;;24.30;99.90;;;;;;5013337;28;20109;-71
2022/08/04 09:20:29;;;;;;;9.57;2.78;;;24.40;99.90;;;;;;5033590;28;20042;-72
2022/08/04 09:23:03;;;;;;;6.47;3.00;;;24.50;99.90;;;;;;5034307;28;20444;-71
2022/08/04 09:25:45;;;;;;;6.65;2.53;;;24.60;99.90;;;;;;5035991;28;20395;-70
2022/08/04 09:28:25;;;;;;;7.47;2.80;;;24.80;99.90;;;;;;5024611;28;20076;-73
2022/08/04 09:30:55;;;;;;;10.35;2.30;;;24.80;99.90;;;;;;5021654;28;20041;-70
2022/08/04 09:33:33;;;;;;;5.00;2.28;;;25.00;99.90;;;;;;5037094;28;20037;-73
2022/08/04 09:36:12;;;;;;;8.32;2.83;;;25.00;99.90;;;;;;5040688;28;20033;-71
2022/08/04 09:38:55;;;;;;;5.25;2.40;;;25.00;99.90;;;;;;5029722;28;20053;-70
2022/08/04 09:41:44;;;;;;;7.80;2.30;;;25.00;99.90;;;;;;5041560;28;20049;-72
2022/08/04 09:44:17;;;;;;;9.63;2.80;;;25.20;99.90;;;;;;5048176;28;20041;-69
2022/08/04 09:46:52;;;;;;;3.47;2.20;;;25.00;99.90;;;;;;5023850;28;20053;-70
2022/08/04 09:49:32;;;;;;;13.32;2.13;;;25.10;99.90;;;;;;5049007;28;20041;-70
2022/08/04 09:52:15;;;;;;;7.35;1.90;;;25.20;99.90;;;;;;5039747;28;20573;-71
2022/08/04 09:54:44;;;;;;;12.20;2.13;;;25.40;99.90;;;;;;5035792;28;20045;-72
2022/08/04 09:57:21;;;;;;;5.25;1.65;;;25.40;99.90;;;;;;5032279;28;20048;-73
2022/08/04 09:59:47;;;;;;;5.15;1.63;;;25.40;99.90;;;;;;5044719;28;20672;-70
2022/08/04 10:02:16;;;;;;;7.32;1.90;;;25.40;99.90;;;;;;5035758;28;20048;-70
2022/08/04 10:04:42;;;;;;;7.65;2.33;;;25.30;99.90;;;;;;5038116;28;20056;-70
2022/08/04 10:07:13;;;;;;;7.43;1.85;;;25.20;99.90;;;;;;5023557;28;20076;-72
2022/08/04 10:10:03;;;;;;;5.15;2.10;;;25.10;99.90;;;;;;5036821;28;20141;-79
2022/08/04 10:12:40;;;;;;;6.38;2.13;;;25.20;99.90;;;;;;5027137;28;20053;-71
2022/08/04 10:15:18;;;;;;;7.18;2.15;;;25.30;99.90;;;;;;5031570;28;20072;-75
2022/08/04 10:17:55;;;;;;;7.75;2.20;;;25.50;99.90;;;;;;5012486;28;20457;-73
2022/08/04 10:20:46;;;;;;;10.65;2.42;;;25.70;99.90;;;;;;5045717;28;20137;-72
2022/08/04 10:23:17;;;;;;;8.23;1.98;;;25.80;99.90;;;;;;5033278;28;20049;-72
2022/08/04 10:26:02;;;;;;;7.32;2.10;;;26.00;99.90;;;;;;5032003;28;20512;-77
2022/08/04 10:28:30;;;;;;;9.73;2.20;;;25.80;99.90;;;;;;5012436;28;20151;-77
2022/08/04 10:31:03;;;;;;;7.32;2.20;;;25.80;99.90;;;;;;5029697;28;20056;-73
2022/08/04 10:33:41;;;;;;;6.35;2.00;;;25.90;99.90;;;;;;5029340;28;20057;-72
2022/08/04 10:36:09;;;;;;;7.88;1.77;;;25.90;99.90;;;;;;5026391;28;20556;-73
2022/08/04 10:38:55;;;;;;;5.88;1.65;;;25.90;99.90;;;;;;5021466;28;20049;-70
2022/08/04 10:41:26;;;;;;;5.72;1.60;;;25.90;99.90;;;;;;5050365;28;20080;-71
2022/08/04 10:44:04;;;;;;;5.72;1.20;;;25.80;99.90;;;;;;5031721;28;20477;-70
2022/08/04 10:46:34;;;;;;;3.25;1.40;;;26.00;99.90;;;;;;5039117;28;20643;-70
2022/08/04 10:49:33;;;;;;;4.50;1.63;;;26.00;99.90;;;;;;5051436;28;20099;-73
2022/08/04 10:52:29;;;;;;;6.10;1.50;;;26.00;99.90;;;;;;5053123;28;20049;-70
2022/08/04 10:54:59;;;;;;;6.18;1.27;;;25.90;99.90;;;;;;5043105;28;20092;-71
2022/08/04 10:57:43;;;;;;;5.45;1.35;;;26.00;99.90;;;;;;5024516;28;20040;-71
2022/08/04 11:00:15;;;;;;;3.13;0.80;;;26.00;99.90;;;;;;5043068;28;20488;-72
2022/08/04 11:02:49;;;;;;;4.05;1.00;;;26.00;99.90;;;;;;5034313;28;20061;-70
2022/08/04 11:05:45;;;;;;;5.40;1.05;;;26.00;99.90;;;;;;5036010;28;20466;-70
2022/08/04 11:08:24;;;;;;;3.85;1.38;;;26.10;99.90;;;;;;5025137;28;20083;-71
2022/08/04 11:11:21;;;;;;;5.20;1.02;;;26.00;99.90;;;;;;5040091;28;20041;-71
2022/08/04 11:14:09;;;;;;;3.65;1.00;;;26.00;99.90;;;;;;5004850;28;20045;-70
2022/08/04 11:16:54;;;;;;;2.47;0.90;;;26.00;99.90;;;;;;5027609;28;20048;-70
2022/08/04 11:19:44;;;;;;;17.00;1.92;;;26.10;99.90;;;;;;5046006;28;20507;-71
2022/08/04 11:22:21;;;;;;;10.82;1.40;;;26.10;99.90;;;;;;5037270;28;20502;-70
2022/08/04 11:24:52;;;;;;;4.28;0.90;;;26.00;99.90;;;;;;5046300;28;20539;-75
2022/08/04 11:27:32;;;;;;;6.25;1.20;;;26.00;99.90;;;;;;5025825;28;20049;-81
2022/08/04 11:29:57;;;;;;;3.08;1.02;;;25.70;99.90;;;;;;5038101;28;20038;-77
2022/08/04 11:32:44;;;;;;;3.13;0.93;;;25.60;99.90;;;;;;5043094;28;20041;-71
2022/08/04 11:35:22;;;;;;;1.58;0.80;;;25.60;99.90;;;;;;5041860;28;20045;-70
2022/08/04 11:38:01;;;;;;;3.20;1.10;;;25.50;99.90;;;;;;5026015;28;20385;-70
2022/08/04 11:40:43;;;;;;;4.85;1.15;;;25.60;99.90;;;;;;5041359;28;20095;-71
2022/08/04 11:43:15;;;;;;;3.33;0.77;;;25.60;99.90;;;;;;5054611;28;20083;-70
2022/08/04 11:45:53;;;;;;;1.90;0.77;;;25.90;99.90;;;;;;5041606;28;20048;-73
2022/08/04 11:48:25;;;;;;;2.00;0.77;;;25.80;99.90;;;;;;5022820;28;20044;-77
2022/08/04 11:50:53;;;;;;;3.45;0.70;;;25.70;99.90;;;;;;5046106;28;20045;-71
2022/08/04 11:53:22;;;;;;;1.58;0.80;;;25.40;99.90;;;;;;5051649;28;20060;-70
2022/08/04 11:55:51;;;;;;;2.75;0.60;;;25.20;99.90;;;;;;5021274;28;20045;-70
2022/08/04 11:58:19;;;;;;;2.30;0.63;;;25.30;99.90;;;;;;5025206;28;20046;-72
2022/08/04 12:00:55;;;;;;;5.72;1.10;;;25.40;99.90;;;;;;5031385;28;20789;-79
2022/08/04 12:03:33;;;;;;;1.98;0.60;;;25.10;99.90;;;;;;5035473;28;20041;-72
2022/08/04 12:06:29;;;;;;;3.47;0.60;;;25.20;99.90;;;;;;5032515;28;20417;-71
2022/08/04 12:09:39;;;;;;;4.82;0.70;;;25.00;99.90;;;;;;5040179;28;20041;-70
2022/08/04 12:12:14;;;;;;;2.80;0.60;;;24.80;99.90;;;;;;5034546;28;20053;-71
2022/08/04 12:14:48;;;;;;;1.75;0.70;;;25.10;99.90;;;;;;5043787;28;20375;-69
2022/08/04 12:17:24;;;;;;;1.33;0.63;;;24.90;99.90;;;;;;5023510;28;20138;-70
2022/08/04 12:19:55;;;;;;;2.60;0.70;;;25.00;99.90;;;;;;5034385;28;20396;-69
2022/08/04 12:22:24;;;;;;;;;;;25.10;99.90;;;;;;5040899;28;20053;-72
2022/08/04 12:25:04;;;;;;;1.17;0.43;;;24.90;99.90;;;;;;5036176;28;19925;-69
2022/08/04 12:27:40;;;;;;;1.40;0.70;;;25.10;99.90;;;;;;5016225;28;20045;-70
2022/08/04 12:30:07;;;;;;;1.33;0.43;;;25.00;99.90;;;;;;5037605;28;20041;-70
2022/08/04 12:33:02;;;;;;;1.50;0.63;;;24.80;99.90;;;;;;5045226;28;20409;-72
2022/08/04 12:36:08;;;;;;;3.25;0.70;;;24.70;99.90;;;;;;5038040;28;20266;-70
2022/08/04 12:38:35;;;;;;;2.47;0.43;;;24.70;99.90;;;;;;5040223;28;20124;-74
2022/08/04 12:41:02;;;;;;;7.57;0.70;;;24.60;99.90;;;;;;5042130;28;20049;-70
2022/08/04 12:43:37;;;;;;;1.40;0.50;;;24.60;99.90;;;;;;5039011;28;20091;-69
2022/08/04 12:46:07;;;;;;;2.17;0.60;;;24.70;99.90;;;;;;5040478;28;20057;-69
2022/08/04 12:48:36;;;;;;;4.93;0.68;;;25.00;99.90;;;;;;5031362;28;20041;-69
2022/08/04 12:51:05;;;;;;;1.73;0.82;;;25.30;99.90;;;;;;5033827;28;20065;-76
2022/08/04 12:53:38;;;;;;;2.05;0.70;;;25.30;99.90;;;;;;5039856;28;20049;-71
2022/08/04 12:56:07;;;;;;;2.33;0.55;;;25.30;99.90;;;;;;5037637;28;20057;-69
2022/08/04 12:58:38;;;;;;;3.40;1.00;;;25.50;99.90;;;;;;5027013;28;20480;-70
2022/08/04 13:01:08;;;;;;;2.80;0.80;;;25.30;99.90;;;;;;5040959;28;20050;-71
2022/08/04 13:03:56;;;;;;;2.83;1.05;;;25.40;99.90;;;;;;5037603;28;20049;-70
2022/08/04 13:06:33;;;;;;;3.30;0.90;;;25.50;99.90;;;;;;5032198;28;20087;-69
2022/08/04 13:09:08;;;;;;;2.10;0.68;;;25.50;99.90;;;;;;5033330;28;20472;-69
2022/08/04 13:11:38;;;;;;;6.22;1.65;;;25.50;99.90;;;;;;5024623;28;20057;-76
2022/08/04 13:14:05;;;;;;;2.65;0.88;;;25.40;99.90;;;;;;5037100;28;20045;-70
2022/08/04 13:16:32;;;;;;;3.03;0.85;;;25.30;99.90;;;;;;5029568;28;20455;-69
2022/08/04 13:18:58;;;;;;;7.00;1.02;;;25.30;99.90;;;;;;5035026;28;20071;-79
2022/08/04 13:21:26;;;;;;;3.60;0.88;;;25.10;99.90;;;;;;5039794;28;20044;-70
2022/08/04 13:23:57;;;;;;;2.63;1.00;;;25.20;99.90;;;;;;5033689;28;20752;-72
2022/08/04 13:26:25;;;;;;;1.67;0.60;;;25.30;99.90;;;;;;5022889;28;20084;-76
2022/08/04 13:28:52;;;;;;;2.22;0.63;;;25.30;99.90;;;;;;5027720;28;20033;-69
2022/08/04 13:31:25;;;;;;;5.32;1.30;;;25.20;99.90;;;;;;5041034;28;20049;-70